Time;durP1;ratioP1;P1;durP2;ratioP2;P2;SDS_P1;SDS_P2;PMS_P1;PMS_P2;Temp;Humidity;BMP_temperature;BMP_pressure;BME280_temperature;BME280_humidity;BME280_pressure;Samples;Min_cycle;Max_cycle;Signal;HPM_P1;HPM_P2
2024/01/21 00:00:54;;;;;;;;;49.50;30.00;;;;;2.23;65.08;101803.56;5038847;28;45393;-61
2024/01/21 00:03:20;;;;;;;;;40.00;28.67;;;;;2.23;65.25;101795.81;5051199;28;67918;-61
2024/01/21 00:05:45;;;;;;;;;30.67;25.67;;;;;2.24;65.26;101792.38;5037056;28;70861;-60
2024/01/21 00:08:10;;;;;;;;;24.75;19.25;;;;;2.24;64.97;101782.03;5073489;27;45292;-61
2024/01/21 00:10:36;;;;;;;;;35.25;26.00;;;;;2.25;65.21;101759.69;5039728;28;45663;-61
2024/01/21 00:13:01;;;;;;;;;36.00;28.33;;;;;2.23;64.74;101739.00;5040958;28;72270;-61
2024/01/21 00:15:26;;;;;;;;;32.00;27.25;;;;;2.22;65.25;101734.66;5041029;28;70462;-61
2024/01/21 00:17:52;;;;;;;;;37.00;28.33;;;;;2.20;65.01;101722.56;5040316;28;72264;-61
2024/01/21 00:20:17;;;;;;;;;28.50;18.75;;;;;2.18;64.90;101719.03;5073247;28;45487;-61
2024/01/21 00:22:42;;;;;;;;;29.50;25.75;;;;;2.15;64.97;101717.28;5045174;28;45430;-61
2024/01/21 00:25:10;;;;;;;;;31.75;27.75;;;;;2.16;65.17;101733.63;5039932;28;45427;-62
2024/01/21 00:27:36;;;;;;;;;42.00;28.50;;;;;2.13;64.98;101739.59;5044036;28;45687;-61
2024/01/21 00:30:03;;;;;;;;;33.25;26.25;;;;;2.13;64.93;101737.03;5044050;28;45512;-61
2024/01/21 00:32:28;;;;;;;;;26.50;22.00;;;;;2.12;64.85;101745.59;5040533;28;45161;-61
2024/01/21 00:34:54;;;;;;;;;28.00;25.25;;;;;2.13;64.95;101741.31;5041694;28;67919;-61
2024/01/21 00:37:19;;;;;;;;;31.33;25.00;;;;;2.16;65.14;101751.72;5039488;28;74185;-61
2024/01/21 00:39:44;;;;;;;;;32.25;23.50;;;;;2.19;64.92;101752.66;5041153;28;45354;-61
2024/01/21 00:42:10;;;;;;;;;36.00;24.50;;;;;2.22;65.11;101749.28;5038320;28;45468;-61
2024/01/21 00:44:36;;;;;;;;;33.00;25.33;;;;;2.24;64.86;101751.06;5040288;28;75316;-61
2024/01/21 00:47:02;;;;;;;;;30.00;25.75;;;;;2.22;65.10;101744.97;5040817;28;45518;-61
2024/01/21 00:49:27;;;;;;;;;31.00;26.00;;;;;2.22;64.47;101741.53;5041093;28;45332;-61
2024/01/21 00:51:52;;;;;;;;;29.75;20.00;;;;;2.23;64.69;101730.34;5042011;28;45478;-61
2024/01/21 00:54:18;;;;;;;;;28.75;21.00;;;;;2.24;64.51;101742.44;5038122;28;70492;-61
2024/01/21 00:56:43;;;;;;;;;35.00;27.75;;;;;2.23;64.35;101732.94;5041926;28;67105;-61
2024/01/21 00:59:08;;;;;;;;;30.67;21.33;;;;;2.20;64.51;101718.25;5042673;28;68222;-61
2024/01/21 01:01:37;;;;;;;;;19.75;17.25;;;;;2.19;64.35;101725.97;5041219;28;62195;-61
2024/01/21 01:04:04;;;;;;;;;37.00;25.75;;;;;2.16;64.27;101731.03;5071635;27;45448;-61
2024/01/21 01:06:29;;;;;;;;;30.25;22.25;;;;;2.17;64.40;101756.91;5042982;28;45692;-61
2024/01/21 01:08:54;;;;;;;;;30.25;22.75;;;;;2.15;63.99;101749.97;5040536;28;59135;-61
2024/01/21 01:11:21;;;;;;;;;33.50;23.25;;;;;2.13;64.38;101759.41;5040547;28;45751;-61
2024/01/21 01:13:46;;;;;;;;;29.00;20.25;;;;;2.11;64.20;101753.31;5038486;28;46169;-63
2024/01/21 01:16:12;;;;;;;;;30.00;22.50;;;;;2.09;64.35;101766.19;5038413;28;45417;-61
2024/01/21 01:18:37;;;;;;;;;27.75;20.50;;;;;2.09;64.43;101759.31;5073261;27;69296;-64
2024/01/21 01:21:02;;;;;;;;;36.00;26.33;;;;;2.08;64.48;101754.13;5041339;28;68581;-61
2024/01/21 01:23:27;;;;;;;;;17.25;11.75;;;;;2.08;64.62;101754.97;5038757;28;69233;-61
2024/01/21 01:25:53;;;;;;;;;31.50;21.25;;;;;2.07;64.24;101748.09;5042397;28;47993;-61
2024/01/21 01:28:18;;;;;;;;;31.25;17.75;;;;;2.03;64.52;101735.91;5040950;28;46637;-61
2024/01/21 01:30:43;;;;;;;;;20.50;17.75;;;;;2.05;64.64;101734.28;5042007;28;45305;-61
2024/01/21 01:33:09;;;;;;;;;20.50;18.50;;;;;2.05;64.54;101748.88;5039268;28;66003;-61
2024/01/21 01:35:34;;;;;;;;;26.75;23.00;;;;;2.05;64.71;101756.63;5040118;28;66290;-61
2024/01/21 01:37:59;;;;;;;;;30.33;23.67;;;;;2.07;64.54;101752.34;5038888;28;67082;-61
2024/01/21 01:40:25;;;;;;;;;32.33;20.00;;;;;2.10;64.53;101755.03;5039860;28;70040;-61
2024/01/21 01:42:59;;;;;;;;;36.67;24.00;;;;;2.12;64.71;101755.06;5034888;28;69622;-61
2024/01/21 01:45:24;;;;;;;;;25.25;17.50;;;;;2.13;64.73;101755.09;5056985;28;45396;-61
2024/01/21 01:47:50;;;;;;;;;31.75;23.25;;;;;2.14;64.47;101758.53;5042654;28;45519;-61
2024/01/21 01:50:16;;;;;;;;;26.00;20.50;;;;;2.16;64.69;101757.78;5039253;28;45446;-61
2024/01/21 01:52:42;;;;;;;;;37.00;22.50;;;;;2.19;64.68;101752.66;5044049;28;46281;-61
2024/01/21 01:55:08;;;;;;;;;30.50;19.50;;;;;2.22;64.45;101757.03;5039600;28;45391;-61
2024/01/21 01:57:33;;;;;;;;;25.25;19.75;;;;;2.21;64.43;101761.34;5038004;28;68278;-61
2024/01/21 01:59:59;;;;;;;;;33.75;25.25;;;;;2.27;64.38;101758.03;5038857;28;72921;-61
2024/01/21 02:02:24;;;;;;;;;36.25;20.75;;;;;2.31;64.36;101761.53;5041962;28;67988;-61
2024/01/21 02:04:49;;;;;;;;;26.75;21.50;;;;;2.34;64.38;101767.66;5038738;28;45604;-61
2024/01/21 02:07:15;;;;;;;;;29.50;21.50;;;;;2.37;64.34;101772.88;5043683;28;69246;-61
2024/01/21 02:09:40;;;;;;;;;22.25;17.50;;;;;2.38;64.41;101778.94;5043229;28;73087;-61
2024/01/21 02:12:06;;;;;;;;;36.25;25.00;;;;;2.41;64.12;101779.00;5039423;28;71171;-61
2024/01/21 02:14:31;;;;;;;;;34.50;20.75;;;;;2.42;63.97;101776.44;5038957;28;45617;-61
2024/01/21 02:16:56;;;;;;;;;26.75;22.25;;;;;2.45;63.95;101773.94;5039534;28;57299;-61
2024/01/21 02:19:26;;;;;;;;;29.33;24.67;;;;;2.49;64.12;101784.34;5042051;28;71364;-61
2024/01/21 02:21:52;;;;;;;;;25.00;17.75;;;;;2.51;64.14;101768.03;5057550;28;46376;-61
2024/01/21 02:24:18;;;;;;;;;34.50;21.75;;;;;2.53;64.16;101773.22;5040712;28;45434;-61
2024/01/21 02:26:43;;;;;;;;;27.75;22.25;;;;;2.54;64.02;101769.81;5035617;28;68294;-61
2024/01/21 02:29:09;;;;;;;;;27.75;19.25;;;;;2.54;63.82;101769.81;5041416;28;45300;-63
2024/01/21 02:31:34;;;;;;;;;27.25;20.25;;;;;2.56;63.86;101758.66;5038668;28;46639;-61
2024/01/21 02:33:59;;;;;;;;;31.25;21.00;;;;;2.56;63.72;101761.25;5039987;28;45446;-61
2024/01/21 02:36:25;;;;;;;;;31.50;20.75;;;;;2.57;63.84;101763.00;5042578;28;54681;-61
2024/01/21 02:38:50;;;;;;;;;30.25;21.00;;;;;2.59;63.75;101763.06;5035823;28;59942;-61
2024/01/21 02:41:15;;;;;;;;;30.50;19.25;;;;;2.61;63.94;101759.66;5036568;28;69699;-61
2024/01/21 02:43:41;;;;;;;;;22.00;18.00;;;;;2.63;63.67;101765.72;5045605;28;72159;-61
2024/01/21 02:46:06;;;;;;;;;25.00;21.00;;;;;2.64;63.82;101771.78;5036863;28;68293;-61
2024/01/21 02:48:31;;;;;;;;;25.75;22.25;;;;;2.63;63.82;101776.06;5040789;28;45351;-61
2024/01/21 02:50:57;;;;;;;;;29.33;22.67;;;;;2.61;63.77;101770.00;5044369;28;75158;-61
2024/01/21 02:53:22;;;;;;;;;26.50;18.50;;;;;2.68;63.85;101775.31;5036697;28;66301;-61
2024/01/21 02:55:47;;;;;;;;;24.33;21.33;;;;;2.69;63.77;101759.81;5039705;28;69242;-61
2024/01/21 02:58:13;;;;;;;;;30.75;22.00;;;;;2.71;63.61;101753.00;5040847;28;65704;-61
2024/01/21 03:00:38;;;;;;;;;25.50;20.00;;;;;2.71;63.76;101753.00;5040514;28;53963;-61
2024/01/21 03:03:03;;;;;;;;;25.50;17.75;;;;;2.70;63.69;101755.53;5038964;28;63231;-61
2024/01/21 03:05:29;;;;;;;;;29.25;20.75;;;;;2.68;63.72;101744.28;5037035;28;64938;-61
2024/01/21 03:07:54;;;;;;;;;26.75;20.50;;;;;2.65;63.64;101729.56;5041798;28;45280;-61
2024/01/21 03:10:19;;;;;;;;;25.75;21.25;;;;;2.66;63.44;101721.88;5039662;28;69458;-61
2024/01/21 03:12:45;;;;;;;;;31.67;22.00;;;;;2.66;63.52;101718.41;5038515;28;73489;-60
2024/01/21 03:15:10;;;;;;;;;23.25;17.25;;;;;2.64;63.39;101708.03;5037079;28;45443;-61
2024/01/21 03:17:35;;;;;;;;;31.00;22.25;;;;;2.64;63.37;101704.59;5038542;28;60662;-60
2024/01/21 03:20:01;;;;;;;;;26.33;21.67;;;;;2.64;63.32;101702.00;5039140;28;74548;-61
2024/01/21 03:22:27;;;;;;;;;32.75;24.75;;;;;2.64;63.60;101710.63;5039636;28;45501;-61
2024/01/21 03:24:53;;;;;;;;;29.25;20.50;;;;;2.65;63.33;101704.59;5038128;28;47082;-61
2024/01/21 03:27:18;;;;;;;;;29.00;21.75;;;;;2.65;63.50;101707.19;5036121;28;45403;-61
2024/01/21 03:29:43;;;;;;;;;21.00;17.75;;;;;2.71;63.19;101715.91;5031252;28;46022;-61
2024/01/21 03:32:09;;;;;;;;;25.75;19.25;;;;;2.74;63.29;101727.19;5039838;28;70008;-61
2024/01/21 03:34:37;;;;;;;;;32.00;21.00;;;;;2.74;63.22;101729.78;5034386;28;63409;-61
2024/01/21 03:37:03;;;;;;;;;26.00;17.25;;;;;2.78;63.16;101743.63;5038249;28;45394;-61
2024/01/21 03:39:28;;;;;;;;;25.75;21.00;;;;;2.80;63.28;101753.19;5039110;28;47032;-61
2024/01/21 03:41:53;;;;;;;;;22.00;17.00;;;;;2.88;62.73;101749.88;5033813;28;73109;-61
2024/01/21 03:44:18;;;;;;;;;26.00;18.25;;;;;2.91;62.92;101750.81;5035742;28;61675;-61
2024/01/21 03:46:44;;;;;;;;;22.50;18.25;;;;;2.90;62.77;101753.38;5037767;28;63059;-61
2024/01/21 03:49:09;;;;;;;;;27.75;21.50;;;;;2.91;62.74;101747.38;5039863;28;46059;-61
2024/01/21 03:51:34;;;;;;;;;22.00;17.00;;;;;2.95;62.76;101749.16;5042101;28;73589;-61
2024/01/21 03:54:00;;;;;;;;;28.00;19.33;;;;;2.97;62.40;101753.50;5034805;28;68491;-61
2024/01/21 03:56:25;;;;;;;;;28.75;20.25;;;;;3.03;62.50;101758.81;5037582;28;72550;-61
2024/01/21 03:58:50;;;;;;;;;31.25;20.25;;;;;3.05;62.04;101756.28;5038250;28;63926;-61
2024/01/21 04:01:16;;;;;;;;;23.75;17.00;;;;;3.08;62.26;101758.03;5036619;28;69118;-61
2024/01/21 04:03:42;;;;;;;;;21.50;14.50;;;;;3.10;62.11;101757.25;5037454;28;46347;-61
2024/01/21 04:06:07;;;;;;;;;26.50;18.00;;;;;3.12;62.01;101755.56;5034462;28;70618;-61
2024/01/21 04:08:33;;;;;;;;;25.67;17.67;;;;;3.09;62.00;101760.66;5074255;27;76472;-61
2024/01/21 04:10:59;;;;;;;;;21.00;17.00;;;;;3.13;61.83;101754.69;5038859;28;45447;-61
2024/01/21 04:13:24;;;;;;;;;18.50;17.00;;;;;3.17;61.89;101753.03;5039012;28;45361;-61
2024/01/21 04:15:49;;;;;;;;;25.00;14.00;;;;;3.21;61.10;101744.53;5040139;28;67167;-61
2024/01/21 04:18:15;;;;;;;;;23.50;14.75;;;;;3.22;61.23;101739.38;5032679;28;61253;-61
2024/01/21 04:20:40;;;;;;;;;20.00;15.50;;;;;3.26;61.40;101731.66;5034899;28;72859;-61
2024/01/21 04:23:05;;;;;;;;;18.75;16.75;;;;;3.31;61.49;101723.16;5041819;28;68312;-61
2024/01/21 04:25:31;;;;;;;;;22.50;18.50;;;;;3.33;61.34;101724.06;5038373;28;71126;-61
2024/01/21 04:27:56;;;;;;;;;15.50;10.25;;;;;3.33;61.26;101725.75;5037552;28;46953;-61
2024/01/21 04:30:22;;;;;;;;;19.00;15.75;;;;;3.35;61.42;101724.09;5039423;28;45387;-61
2024/01/21 04:32:47;;;;;;;;;25.25;18.50;;;;;3.39;61.40;101728.47;5045984;28;66432;-61
2024/01/21 04:35:13;;;;;;;;;22.50;18.00;;;;;3.40;61.21;101723.34;5037642;28;45307;-61
2024/01/21 04:37:38;;;;;;;;;22.75;18.00;;;;;3.44;61.24;101728.56;5038171;28;45548;-61
2024/01/21 04:40:04;;;;;;;;;33.33;19.33;;;;;3.44;61.08;101700.97;5035712;28;73079;-61
2024/01/21 04:42:30;;;;;;;;;23.75;17.50;;;;;3.44;61.18;101676.81;5034642;28;45490;-61
2024/01/21 04:44:55;;;;;;;;;23.75;20.00;;;;;3.44;61.23;101679.41;5039367;28;45530;-60
2024/01/21 04:47:21;;;;;;;;;19.25;17.00;;;;;3.43;61.33;101655.22;5045257;28;75641;-61
2024/01/21 04:49:46;;;;;;;;;18.00;12.25;;;;;3.39;61.08;101685.34;5044439;28;45403;-61
2024/01/21 04:52:11;;;;;;;;;23.75;16.75;;;;;3.43;61.04;101699.22;5039321;28;45291;-61
2024/01/21 04:54:37;;;;;;;;;20.25;15.50;;;;;3.47;60.70;101701.03;5066550;28;70003;-61
2024/01/21 04:57:02;;;;;;;;;20.00;17.25;;;;;3.52;60.76;101703.69;5036660;28;45399;-61
2024/01/21 04:59:27;;;;;;;;;27.25;18.25;;;;;3.56;60.38;101692.53;5042726;28;45519;-61
2024/01/21 05:01:53;;;;;;;;;18.75;16.50;;;;;3.60;60.30;101696.94;5040341;28;45460;-61
2024/01/21 05:04:18;;;;;;;;;16.00;13.25;;;;;3.70;60.09;101692.78;5040107;28;48839;-61
2024/01/21 05:06:44;;;;;;;;;18.25;14.00;;;;;3.73;59.89;101693.69;5039869;28;75422;-61
2024/01/21 05:09:10;;;;;;;;;14.00;13.25;;;;;3.78;59.80;101693.78;5053036;28;45462;-61
2024/01/21 05:11:36;;;;;;;;;13.75;12.50;;;;;3.83;59.74;101680.94;5039960;28;45253;-61
2024/01/21 05:14:01;;;;;;;;;19.00;13.50;;;;;3.87;59.45;101677.53;5042351;28;45482;-61
2024/01/21 05:16:27;;;;;;;;;22.75;11.25;;;;;3.87;59.32;101686.16;5040115;28;57262;-61
2024/01/21 05:18:52;;;;;;;;;23.00;11.25;;;;;3.92;59.04;101686.25;5042716;28;45549;-61
2024/01/21 05:21:21;;;;;;;;;21.75;13.75;;;;;3.98;59.06;101674.28;5076045;27;45623;-61
2024/01/21 05:23:51;;;;;;;;;18.00;12.75;;;;;4.00;59.16;101656.13;5043464;28;45578;-61
2024/01/21 05:26:16;;;;;;;;;16.75;13.00;;;;;4.01;59.22;101660.47;5038867;28;46284;-61
2024/01/21 05:28:41;;;;;;;;;15.25;13.00;;;;;4.02;59.41;101662.22;5040860;28;45399;-61
2024/01/21 05:31:07;;;;;;;;;14.00;9.50;;;;;4.04;59.68;101664.81;5041785;28;60733;-61
2024/01/21 05:33:33;;;;;;;;;19.75;11.50;;;;;4.08;59.84;101658.84;5040869;28;73255;-61
2024/01/21 05:35:58;;;;;;;;;12.25;10.50;;;;;4.09;59.83;101648.53;5041555;28;46089;-62
2024/01/21 05:38:23;;;;;;;;;13.50;11.25;;;;;4.10;59.98;101629.53;5038422;28;66023;-61
2024/01/21 05:40:49;;;;;;;;;19.00;14.00;;;;;4.12;59.96;101624.38;5040736;28;60712;-61
2024/01/21 05:43:14;;;;;;;;;16.25;13.00;;;;;4.13;59.81;101641.66;5071749;28;73275;-61
2024/01/21 05:45:40;;;;;;;;;10.25;10.25;;;;;4.18;59.89;101650.38;5041482;28;70074;-61
2024/01/21 05:48:06;;;;;;;;;13.75;9.50;;;;;4.19;59.57;101641.75;5040911;28;45565;-61
2024/01/21 05:50:31;;;;;;;;;20.50;13.50;;;;;4.23;59.59;101647.84;5041475;28;45394;-61
2024/01/21 05:52:57;;;;;;;;;22.25;14.50;;;;;4.19;59.66;101647.78;5040853;28;69777;-61
2024/01/21 05:55:22;;;;;;;;;12.50;10.50;;;;;4.14;59.82;101654.66;5042158;28;60418;-61
2024/01/21 05:57:47;;;;;;;;;13.75;10.00;;;;;4.17;60.05;101643.44;5035002;28;68045;-61
2024/01/21 06:00:13;;;;;;;;;13.75;11.50;;;;;4.17;59.87;101631.34;5039849;28;45475;-61
2024/01/21 06:02:38;;;;;;;;;15.00;11.00;;;;;4.20;59.97;101659.03;5052845;28;45612;-61
2024/01/21 06:05:04;;;;;;;;;13.75;10.50;;;;;4.21;60.00;101663.34;5040712;28;74612;-61
2024/01/21 06:07:29;;;;;;;;;10.00;9.50;;;;;4.19;60.08;101649.50;5043799;28;45282;-61
2024/01/21 06:09:55;;;;;;;;;19.75;12.25;;;;;4.21;60.11;101658.16;5036634;28;69165;-61
2024/01/21 06:12:21;;;;;;;;;17.00;11.75;;;;;4.26;59.99;101658.25;5042144;28;45458;-61
2024/01/21 06:14:46;;;;;;;;;15.75;11.75;;;;;4.31;60.34;101667.81;5069828;27;76495;-61
2024/01/21 06:17:11;;;;;;;;;13.00;10.25;;;;;4.27;60.44;101663.44;5040361;28;45559;-60
2024/01/21 06:19:37;;;;;;;;;16.25;11.00;;;;;4.30;60.36;101662.59;5078892;27;58641;-60
2024/01/21 06:22:02;;;;;;;;;12.75;10.00;;;;;4.31;60.59;101672.13;5046612;28;45501;-61
2024/01/21 06:24:28;;;;;;;;;12.25;9.75;;;;;4.34;60.40;101675.66;5038271;28;46233;-61
2024/01/21 06:26:53;;;;;;;;;13.75;12.00;;;;;4.37;60.60;101682.56;5039700;28;67127;-60
2024/01/21 06:29:18;;;;;;;;;12.75;9.25;;;;;4.40;60.62;101674.84;5037241;28;69367;-61
2024/01/21 06:31:44;;;;;;;;;14.00;11.50;;;;;4.44;60.93;101673.16;5032926;28;66695;-61
2024/01/21 06:34:09;;;;;;;;;13.50;11.00;;;;;4.45;60.93;101669.75;5038570;28;47324;-60
2024/01/21 06:36:34;;;;;;;;;15.75;10.75;;;;;4.46;60.91;101685.31;5042619;28;45501;-61
2024/01/21 06:39:00;;;;;;;;;13.00;12.00;;;;;4.47;60.94;101671.50;5037959;28;69237;-60
2024/01/21 06:41:25;;;;;;;;;16.00;11.25;;;;;4.49;61.06;101653.38;5037548;28;72388;-61
2024/01/21 06:43:50;;;;;;;;;16.50;10.00;;;;;4.49;61.14;101661.16;5034756;28;46189;-61
2024/01/21 06:46:16;;;;;;;;;13.00;10.75;;;;;4.48;61.17;101675.84;5044953;28;72006;-60
2024/01/21 06:48:41;;;;;;;;;13.25;9.75;;;;;4.50;61.31;101673.28;5049751;28;45447;-61
2024/01/21 06:51:11;;;;;;;;;17.75;14.00;;;;;4.52;61.35;101672.41;5046822;28;45485;-60
2024/01/21 06:53:37;;;;;;;;;18.50;12.00;;;;;4.51;61.37;101675.84;5049555;28;45983;-60
2024/01/21 06:56:07;;;;;;;;;12.50;10.25;;;;;4.53;61.50;101704.38;5037367;28;45521;-61
2024/01/21 06:58:33;;;;;;;;;12.50;11.25;;;;;4.54;61.63;101699.22;5050751;28;45303;-60
2024/01/21 07:00:59;;;;;;;;;21.50;12.75;;;;;4.55;61.69;101694.91;5040550;28;45491;-60
2024/01/21 07:03:25;;;;;;;;;13.00;10.25;;;;;4.55;61.48;101694.91;5040150;28;47040;-60
2024/01/21 07:05:50;;;;;;;;;13.75;13.75;;;;;4.55;61.35;101700.09;5045924;28;45660;-61
2024/01/21 07:08:17;;;;;;;;;12.00;9.50;;;;;4.56;61.49;101710.47;5042453;28;45372;-61
2024/01/21 07:10:43;;;;;;;;;22.50;12.00;;;;;4.57;61.63;101713.97;5041382;28;45450;-61
2024/01/21 07:13:08;;;;;;;;;14.00;12.50;;;;;4.59;61.80;101725.22;5046334;28;46240;-61
2024/01/21 07:15:33;;;;;;;;;12.00;11.00;;;;;4.62;61.95;101737.34;5070157;27;62631;-61
2024/01/21 07:17:59;;;;;;;;;17.50;12.00;;;;;4.61;61.99;101754.63;5050951;28;45508;-60
2024/01/21 07:20:24;;;;;;;;;16.25;12.25;;;;;4.64;62.02;101746.00;5037899;28;73295;-61
2024/01/21 07:22:49;;;;;;;;;16.00;11.75;;;;;4.64;62.13;101741.72;5037873;28;67332;-61
2024/01/21 07:25:15;;;;;;;;;14.25;10.00;;;;;4.66;61.97;101734.81;5037805;28;45393;-61
2024/01/21 07:27:42;;;;;;;;;15.00;11.00;;;;;4.68;62.36;101729.66;5033765;28;45729;-60
2024/01/21 07:30:09;;;;;;;;;8.50;8.00;;;;;4.72;62.14;101734.03;5045066;28;45450;-61
2024/01/21 07:32:36;;;;;;;;;22.00;12.00;;;;;4.74;62.27;101737.50;5040729;28;45473;-61
2024/01/21 07:35:01;;;;;;;;;14.25;11.50;;;;;4.75;62.37;101747.03;5046838;28;45537;-62
2024/01/21 07:37:27;;;;;;;;;14.00;10.00;;;;;4.78;62.11;101744.50;5042859;28;63017;-62
2024/01/21 07:39:52;;;;;;;;;16.50;12.25;;;;;4.79;62.28;101720.28;5043868;28;45387;-61
2024/01/21 07:42:17;;;;;;;;;15.75;11.50;;;;;4.79;63.66;101712.50;5038260;28;74805;-60
2024/01/21 07:44:43;;;;;;;;;17.25;11.75;;;;;4.80;62.59;101726.34;5040996;28;52958;-62
2024/01/21 07:47:08;;;;;;;;;13.75;10.00;;;;;4.82;62.50;101746.28;5039586;28;53063;-61
2024/01/21 07:49:33;;;;;;;;;15.75;11.50;;;;;4.86;62.73;101762.75;5048406;28;45414;-61
2024/01/21 07:51:59;;;;;;;;;15.00;12.25;;;;;4.89;62.65;101776.63;5035011;28;68239;-61
2024/01/21 07:54:24;;;;;;;;;13.50;11.75;;;;;4.88;62.63;101769.69;5039639;28;67147;-61
2024/01/21 07:56:49;;;;;;;;;19.00;11.75;;;;;4.99;62.52;101771.53;5041678;28;65913;-60
2024/01/21 07:59:15;;;;;;;;;11.00;10.00;;;;;5.00;62.37;101781.09;5041108;28;70433;-61
2024/01/21 08:01:40;;;;;;;;;16.25;11.75;;;;;5.02;62.47;101785.44;5041618;28;45640;-61
2024/01/21 08:04:06;;;;;;;;;16.25;13.00;;;;;5.03;62.49;101776.81;5037645;28;70466;-62
2024/01/21 08:06:31;;;;;;;;;15.25;12.50;;;;;5.06;62.42;101776.81;5038297;28;58146;-61
2024/01/21 08:08:56;;;;;;;;;21.25;12.00;;;;;5.09;62.33;101791.56;5038354;28;51414;-62
2024/01/21 08:11:22;;;;;;;;;16.00;11.00;;;;;5.10;62.39;101788.13;5036605;28;74550;-62
2024/01/21 08:13:47;;;;;;;;;13.25;10.75;;;;;5.11;62.46;101777.75;5036061;28;67186;-61
2024/01/21 08:16:13;;;;;;;;;17.25;11.50;;;;;5.18;62.56;101780.44;5047446;28;67192;-62
2024/01/21 08:18:38;;;;;;;;;14.00;10.00;;;;;5.22;62.62;101782.22;5038136;28;45291;-62
2024/01/21 08:21:04;;;;;;;;;13.00;12.00;;;;;5.26;62.31;101786.59;5037092;28;68254;-62
2024/01/21 08:23:29;;;;;;;;;13.50;11.25;;;;;5.28;62.52;101774.50;5042022;28;45220;-61
2024/01/21 08:25:54;;;;;;;;;12.00;9.25;;;;;5.30;62.39;101778.84;5039862;28;68375;-61
2024/01/21 08:28:20;;;;;;;;;12.00;9.25;;;;;5.32;62.34;101777.13;5033041;28;45636;-62
2024/01/21 08:30:45;;;;;;;;;15.00;10.75;;;;;5.34;62.34;101782.34;5074150;28;46017;-61
2024/01/21 08:33:10;;;;;;;;;11.00;11.00;;;;;5.37;62.21;101800.56;5041420;28;45255;-61
2024/01/21 08:35:36;;;;;;;;;15.50;11.25;;;;;5.39;62.48;101822.22;5039194;28;62856;-61
2024/01/21 08:38:02;;;;;;;;;12.75;11.00;;;;;5.41;62.36;101827.44;5051410;28;45343;-62
2024/01/21 08:40:27;;;;;;;;;15.75;10.00;;;;;5.43;62.32;101831.78;5039382;28;46783;-61
2024/01/21 08:42:52;;;;;;;;;19.00;13.00;;;;;5.47;62.25;101843.06;5040312;28;59817;-62
2024/01/21 08:45:18;;;;;;;;;12.50;11.00;;;;;5.50;62.33;101863.88;5040434;28;63292;-61
2024/01/21 08:47:44;;;;;;;;;12.25;11.75;;;;;5.52;62.50;101864.75;5042062;28;45413;-62
2024/01/21 08:50:10;;;;;;;;;11.50;8.25;;;;;5.52;62.69;101867.34;5038666;28;46239;-62
2024/01/21 08:52:35;;;;;;;;;14.75;11.00;;;;;5.54;62.63;101875.16;5073388;27;45570;-61
2024/01/21 08:55:00;;;;;;;;;20.00;12.00;;;;;5.54;62.61;101873.44;5036908;28;64618;-61
2024/01/21 08:57:26;;;;;;;;;15.75;10.75;;;;;5.56;62.75;101868.28;5048894;28;66235;-61
2024/01/21 08:59:51;;;;;;;;;13.50;12.75;;;;;5.57;62.89;101857.91;5042901;28;74551;-61
2024/01/21 09:02:18;;;;;;;;;14.75;12.50;;;;;5.61;62.89;101851.03;5042494;28;72760;-61
2024/01/21 09:04:43;;;;;;;;;17.50;10.75;;;;;5.64;63.14;101849.34;5041872;28;45426;-61
2024/01/21 09:07:09;;;;;;;;;16.75;9.50;;;;;5.68;63.15;101858.03;5043263;28;53503;-61
2024/01/21 09:09:35;;;;;;;;;16.25;11.00;;;;;5.73;63.00;101860.69;5049396;28;46040;-61
2024/01/21 09:12:01;;;;;;;;;17.00;9.50;;;;;5.76;63.40;101853.81;5048565;27;45697;-61
2024/01/21 09:14:26;;;;;;;;;10.75;10.50;;;;;5.80;63.23;101852.09;5041626;28;45501;-62
2024/01/21 09:16:52;;;;;;;;;16.75;10.75;;;;;5.86;63.39;101853.06;5037343;28;45378;-62
2024/01/21 09:19:17;;;;;;;;;12.50;8.25;;;;;5.89;63.15;101845.25;5041482;28;55974;-62
2024/01/21 09:21:42;;;;;;;;;12.00;8.25;;;;;5.94;63.34;101853.13;5047367;28;45418;-62
2024/01/21 09:24:08;;;;;;;;;12.25;8.50;;;;;5.97;63.24;101847.13;5047015;28;45422;-63
2024/01/21 09:26:34;;;;;;;;;15.75;12.00;;;;;6.00;63.35;101858.44;5046056;28;45514;-65
2024/01/21 09:28:59;;;;;;;;;15.25;11.00;;;;;6.01;63.45;101867.94;5050148;28;65518;-61
2024/01/21 09:31:25;;;;;;;;;16.25;11.00;;;;;6.11;63.30;101873.22;5040204;28;45634;-63
2024/01/21 09:33:50;;;;;;;;;12.25;11.25;;;;;6.15;63.42;101862.03;5050226;28;45370;-62
2024/01/21 09:36:16;;;;;;;;;17.25;10.00;;;;;6.21;63.27;101877.66;5054639;28;47928;-60
2024/01/21 09:38:41;;;;;;;;;17.50;12.75;;;;;6.28;63.32;101866.47;5058635;28;45984;-62
2024/01/21 09:41:31;;;;;;;;;11.00;9.00;;;;;6.36;63.06;101843.16;5046451;28;45354;-62
2024/01/21 09:43:57;;;;;;;;;14.00;10.75;;;;;6.40;63.00;101835.38;5044429;28;45374;-62
2024/01/21 09:46:22;;;;;;;;;32.25;17.75;;;;;6.46;63.04;101839.75;5027707;28;46383;-63
2024/01/21 09:48:50;;;;;;;;;8.50;8.50;;;;;6.51;62.73;101851.06;5038145;28;75689;-62
2024/01/21 09:51:20;;;;;;;;;15.25;12.75;;;;;6.59;62.89;101858.94;5041503;28;45236;-61
2024/01/21 09:53:46;;;;;;;;;16.00;11.25;;;;;6.61;62.73;101858.06;5049101;28;45363;-60
2024/01/21 09:56:11;;;;;;;;;15.50;9.00;;;;;6.66;62.51;101876.34;5039975;28;45327;-61
2024/01/21 09:58:45;;;;;;;;;18.00;12.00;;;;;6.69;62.54;101883.28;5042773;28;69050;-60
2024/01/21 10:01:11;;;;;;;;;13.00;12.00;;;;;6.67;62.51;101878.06;5048593;28;45386;-61
2024/01/21 10:03:36;;;;;;;;;14.50;10.25;;;;;6.68;62.42;101879.81;5040075;28;45456;-64
2024/01/21 10:06:02;;;;;;;;;16.00;12.00;;;;;6.68;62.22;101878.94;5042102;28;72155;-60
2024/01/21 10:08:28;;;;;;;;;11.75;10.50;;;;;6.71;62.27;101891.94;5042678;28;45843;-62
2024/01/21 10:10:54;;;;;;;;;13.50;10.75;;;;;6.72;62.71;101899.78;5046023;28;46108;-65
2024/01/21 10:13:19;;;;;;;;;14.50;10.00;;;;;6.74;62.49;101908.44;5049102;28;45443;-61
2024/01/21 10:15:44;;;;;;;;;17.25;12.25;;;;;6.76;62.44;101903.25;5041595;28;45477;-63
2024/01/21 10:18:10;;;;;;;;;14.00;12.00;;;;;6.75;62.43;101897.19;5037937;28;72835;-64
2024/01/21 10:20:36;;;;;;;;;14.50;11.50;;;;;6.77;62.52;101902.41;5040509;28;56628;-62
2024/01/21 10:23:09;;;;;;;;;13.75;12.00;;;;;6.77;62.62;101892.88;5042433;28;45185;-60
2024/01/21 10:25:34;;;;;;;;;15.00;10.25;;;;;6.79;62.40;101888.56;5044653;28;45401;-62
2024/01/21 10:28:00;;;;;;;;;18.00;14.50;;;;;6.82;62.72;101882.50;5039289;28;65958;-62
2024/01/21 10:30:25;;;;;;;;;17.50;12.25;;;;;6.84;62.45;101873.84;5070688;27;45490;-63
2024/01/21 10:32:50;;;;;;;;;13.50;10.25;;;;;6.86;62.54;101879.06;5059421;28;52356;-61
2024/01/21 10:35:16;;;;;;;;;22.75;14.25;;;;;6.89;62.66;101866.09;5042189;28;45320;-61
2024/01/21 10:37:41;;;;;;;;;12.75;10.75;;;;;6.94;62.57;101861.78;5040101;28;46335;-67
2024/01/21 10:40:09;;;;;;;;;17.25;12.00;;;;;6.99;62.52;101848.78;5043553;28;45499;-63
2024/01/21 10:42:34;;;;;;;;;14.75;12.00;;;;;7.02;62.66;101834.03;5051330;28;45539;-63
2024/01/21 10:45:00;;;;;;;;;15.50;12.00;;;;;7.07;62.70;101810.66;5036734;28;45284;-62
2024/01/21 10:47:25;;;;;;;;;12.00;9.50;;;;;7.16;62.71;101820.25;5039144;28;49507;-60
2024/01/21 10:49:51;;;;;;;;;12.75;9.00;;;;;7.19;62.73;101817.66;5032939;28;73235;-60
2024/01/21 10:52:17;;;;;;;;;13.50;12.50;;;;;7.21;63.13;101808.97;5042240;28;45544;-60
2024/01/21 10:54:44;;;;;;;;;19.00;14.00;;;;;7.26;62.88;101809.00;5053482;28;45293;-60
2024/01/21 10:57:09;;;;;;;;;15.75;10.00;;;;;7.28;62.72;101802.06;5037328;28;75634;-60
2024/01/21 10:59:38;;;;;;;;;18.50;11.50;;;;;7.29;63.01;101803.78;5038740;28;72199;-61
2024/01/21 11:02:04;;;;;;;;;13.25;10.25;;;;;7.30;62.92;101804.69;5038647;28;45311;-62
2024/01/21 11:04:30;;;;;;;;;18.25;13.75;;;;;7.31;63.29;101814.22;5068621;28;45570;-60
2024/01/21 11:06:55;;;;;;;;;19.00;12.75;;;;;7.41;63.15;101806.44;5038515;28;73647;-62
2024/01/21 11:09:22;;;;;;;;;14.50;9.50;;;;;7.51;63.10;101803.91;5054582;28;45316;-62